createdAt,value
2018-03-30T00:02:07.043Z,13.27
2018-03-30T00:04:34.543Z,11.68
2018-03-30T00:07:07.738Z,10.40
2018-03-30T00:09:47.182Z,11.80
2018-03-30T00:12:14.635Z,10.07
2018-03-30T00:14:42.234Z,8.75
2018-03-30T00:17:09.719Z,15.25
2018-03-30T00:19:37.220Z,9.27
2018-03-30T00:22:04.685Z,6.78
2018-03-30T00:24:32.163Z,7.37
2018-03-30T00:27:00.396Z,7.72
2018-03-30T00:29:27.884Z,6.68
2018-03-30T00:31:55.344Z,15.52
2018-03-30T00:34:23.595Z,14.90
2018-03-30T00:36:51.072Z,16.70
2018-03-30T00:39:18.543Z,8.75
2018-03-30T00:41:46.802Z,12.43
2018-03-30T00:44:14.300Z,13.93
2018-03-30T00:46:42.643Z,12.13
2018-03-30T00:49:10.222Z,14.02
2018-03-30T00:51:38.499Z,12.37
2018-03-30T00:54:06.741Z,10.85
2018-03-30T00:56:34.254Z,10.05
2018-03-30T00:59:01.796Z,13.13
2018-03-30T01:01:30.042Z,13.07
2018-03-30T01:03:57.542Z,12.35
2018-03-30T01:06:25.015Z,11.30
2018-03-30T01:08:52.513Z,15.63
2018-03-30T01:11:19.978Z,16.80
2018-03-30T01:13:47.468Z,13.00
2018-03-30T01:16:15.713Z,16.95
2018-03-30T01:18:43.190Z,24.40
2018-03-30T01:21:11.410Z,23.65
2018-03-30T01:23:38.895Z,31.23
2018-03-30T01:26:06.405Z,32.40
2018-03-30T01:28:33.869Z,31.62
2018-03-30T01:31:01.380Z,36.20
2018-03-30T01:33:28.862Z,28.60
2018-03-30T01:35:57.110Z,37.05
2018-03-30T01:38:24.674Z,29.50
2018-03-30T01:40:52.150Z,22.13
2018-03-30T01:43:20.393Z,27.60
2018-03-30T01:45:47.859Z,26.83
2018-03-30T01:48:15.338Z,27.67
2018-03-30T01:50:43.565Z,21.98
2018-03-30T01:53:11.048Z,28.05
2018-03-30T01:55:38.515Z,24.73
2018-03-30T01:58:05.993Z,24.17
2018-03-30T02:00:34.213Z,31.30
2018-03-30T02:03:01.758Z,21.17
2018-03-30T02:05:29.960Z,25.20
2018-03-30T02:07:57.410Z,23.52
2018-03-30T02:10:24.903Z,25.62
2018-03-30T02:12:52.354Z,25.70
2018-03-30T02:15:20.601Z,19.87
2018-03-30T02:17:48.094Z,20.42
2018-03-30T02:20:15.573Z,25.08
2018-03-30T02:22:43.810Z,24.45
2018-03-30T02:25:11.318Z,24.33
2018-03-30T02:27:38.783Z,23.87
2018-03-30T02:30:06.278Z,20.70
2018-03-30T02:32:33.751Z,22.98
2018-03-30T02:35:01.231Z,26.90
2018-03-30T02:37:29.482Z,23.55
2018-03-30T02:39:56.941Z,21.65
2018-03-30T02:42:24.434Z,19.90
2018-03-30T02:44:51.949Z,19.27
2018-03-30T02:47:19.455Z,15.77
2018-03-30T02:49:46.904Z,17.02
2018-03-30T02:52:15.151Z,13.65
2018-03-30T02:54:42.603Z,17.90
2018-03-30T02:57:10.082Z,17.73
2018-03-30T02:59:38.316Z,21.08
2018-03-30T03:02:05.774Z,23.17
2018-03-30T03:04:33.250Z,19.15
2018-03-30T03:07:00.720Z,18.67
2018-03-30T03:09:28.197Z,16.17
2018-03-30T03:11:55.654Z,21.05
2018-03-30T03:14:23.898Z,20.45
2018-03-30T03:16:51.361Z,14.80
2018-03-30T03:19:18.841Z,18.87
2018-03-30T03:21:47.082Z,19.40
2018-03-30T03:24:14.539Z,15.25
2018-03-30T03:26:42.028Z,16.67
2018-03-30T03:29:10.261Z,21.77
2018-03-30T03:31:37.770Z,18.77
2018-03-30T03:34:06.010Z,19.12
2018-03-30T03:36:33.505Z,21.02
2018-03-30T03:39:01.737Z,19.77
2018-03-30T03:41:29.209Z,20.80
2018-03-30T03:43:56.694Z,28.08
2018-03-30T03:46:24.930Z,19.90
2018-03-30T03:48:52.410Z,21.87
2018-03-30T03:51:19.872Z,16.55
2018-03-30T03:53:48.109Z,18.90
2018-03-30T03:56:15.574Z,15.70
2018-03-30T03:58:43.047Z,17.33
2018-03-30T04:01:10.508Z,20.88
2018-03-30T04:03:38.057Z,17.77
2018-03-30T04:06:05.531Z,18.85
2018-03-30T04:08:33.008Z,19.58
2018-03-30T04:11:00.486Z,19.35
2018-03-30T04:13:27.939Z,18.83
2018-03-30T04:15:55.409Z,17.87
2018-03-30T04:18:22.869Z,19.23
2018-03-30T04:20:50.347Z,13.88
2018-03-30T04:23:17.806Z,18.10
2018-03-30T04:25:45.292Z,23.20
2018-03-30T04:28:12.748Z,20.50
2018-03-30T04:30:40.227Z,17.42
2018-03-30T04:33:08.470Z,20.90
2018-03-30T04:35:35.940Z,20.33
2018-03-30T04:38:03.437Z,16.00
2018-03-30T04:40:30.887Z,18.77
2018-03-30T04:42:58.381Z,20.40
2018-03-30T04:45:25.849Z,21.58
2018-03-30T04:47:53.334Z,21.05
2018-03-30T04:50:20.882Z,19.42
2018-03-30T04:52:48.341Z,20.55
2018-03-30T04:55:15.925Z,23.48
2018-03-30T04:57:43.351Z,17.92
2018-03-30T05:00:10.849Z,19.55
2018-03-30T05:02:38.325Z,19.83
2018-03-30T05:05:06.090Z,24.02
2018-03-30T05:07:33.566Z,20.00
2018-03-30T05:10:01.051Z,21.85
2018-03-30T05:12:28.530Z,21.75
2018-03-30T05:14:56.766Z,18.60
2018-03-30T05:17:24.259Z,17.90
2018-03-30T05:19:51.710Z,24.55
2018-03-30T05:22:19.960Z,22.85
2018-03-30T05:24:47.422Z,21.05
2018-03-30T05:27:14.902Z,22.02
2018-03-30T05:29:43.130Z,15.32
2018-03-30T05:32:10.635Z,26.83
2018-03-30T05:34:38.898Z,21.60
2018-03-30T05:37:06.379Z,22.10
2018-03-30T05:39:34.628Z,24.50
2018-03-30T05:42:02.083Z,21.15
2018-03-30T05:44:29.566Z,23.98
2018-03-30T05:46:57.798Z,20.12
2018-03-30T05:49:25.297Z,20.62
2018-03-30T05:51:52.742Z,18.50
2018-03-30T05:54:20.213Z,21.58
2018-03-30T05:56:48.476Z,21.87
2018-03-30T05:59:15.958Z,24.77
2018-03-30T06:01:44.220Z,19.58
2018-03-30T06:04:11.683Z,24.52
2018-03-30T06:06:39.942Z,18.80
2018-03-30T06:09:07.405Z,18.12
2018-03-30T06:11:34.898Z,17.58
2018-03-30T06:14:02.354Z,18.50
2018-03-30T06:16:29.868Z,19.30
2018-03-30T06:18:57.335Z,14.87
2018-03-30T06:21:24.793Z,19.73
2018-03-30T06:23:52.290Z,19.92
2018-03-30T06:26:19.768Z,20.17
2018-03-30T06:28:47.243Z,17.67
2018-03-30T06:31:14.723Z,20.48
2018-03-30T06:33:42.231Z,18.23
2018-03-30T06:36:09.717Z,22.45
2018-03-30T06:38:37.218Z,18.20
2018-03-30T06:41:05.450Z,17.05
2018-03-30T06:43:32.915Z,15.38
2018-03-30T06:46:00.403Z,20.00
2018-03-30T06:48:28.629Z,18.05
2018-03-30T06:50:56.113Z,18.87
2018-03-30T06:53:23.571Z,14.25
2018-03-30T06:55:51.046Z,13.98
2018-03-30T06:58:19.274Z,14.57
2018-03-30T07:00:46.762Z,14.32
2018-03-30T07:03:14.215Z,11.45
2018-03-30T07:05:41.697Z,15.65
2018-03-30T07:08:09.155Z,13.90
2018-03-30T07:10:37.435Z,13.80
2018-03-30T07:13:05.664Z,17.08
2018-03-30T07:15:33.163Z,13.07
2018-03-30T07:18:01.430Z,12.27
2018-03-30T07:20:29.002Z,14.27
2018-03-30T07:22:57.259Z,9.93
2018-03-30T07:25:26.235Z,14.82
2018-03-30T07:27:53.727Z,11.35
2018-03-30T07:30:21.969Z,14.40
2018-03-30T07:32:49.469Z,13.75
2018-03-30T07:35:17.699Z,13.45
2018-03-30T07:37:45.191Z,12.48
2018-03-30T07:40:12.684Z,10.32
2018-03-30T07:42:40.139Z,12.27
2018-03-30T07:45:07.632Z,11.30
2018-03-30T07:47:35.089Z,11.52
2018-03-30T07:50:02.618Z,10.68
2018-03-30T07:52:30.122Z,10.40
2018-03-30T07:54:57.629Z,10.00
2018-03-30T07:57:25.108Z,10.38
2018-03-30T07:59:52.620Z,10.07
2018-03-30T08:02:20.839Z,9.32
2018-03-30T08:04:48.314Z,10.20
2018-03-30T08:07:15.829Z,11.02
2018-03-30T08:09:43.318Z,11.60
2018-03-30T08:12:10.787Z,11.40
2018-03-30T08:14:38.267Z,9.95
2018-03-30T08:17:06.526Z,8.80
2018-03-30T08:19:34.028Z,8.10
2018-03-30T08:22:01.500Z,9.02
2018-03-30T08:24:28.968Z,11.33
2018-03-30T08:26:56.455Z,11.57
2018-03-30T08:29:23.951Z,10.17
2018-03-30T08:31:52.211Z,7.83
2018-03-30T08:34:19.705Z,8.97
2018-03-30T08:36:47.218Z,8.40
2018-03-30T08:39:14.722Z,14.60
2018-03-30T08:41:42.216Z,8.50
2018-03-30T08:44:09.708Z,8.02
2018-03-30T08:46:37.175Z,9.90
2018-03-30T08:49:05.444Z,9.80
2018-03-30T08:51:33.704Z,9.50
2018-03-30T08:54:01.226Z,10.52
2018-03-30T08:56:28.704Z,9.48
2018-03-30T08:58:56.207Z,12.27
2018-03-30T09:01:24.467Z,10.18
2018-03-30T09:03:51.934Z,9.52
2018-03-30T09:06:20.205Z,9.88
2018-03-30T09:08:48.442Z,11.98
2018-03-30T09:11:15.960Z,11.48
2018-03-30T09:13:43.425Z,9.68
2018-03-30T09:16:10.914Z,9.40
2018-03-30T09:18:38.415Z,11.07
2018-03-30T09:21:06.678Z,9.30
2018-03-30T09:23:34.940Z,11.02
2018-03-30T09:26:03.199Z,16.25
2018-03-30T09:28:30.706Z,11.43
2018-03-30T09:30:58.940Z,9.32
2018-03-30T09:33:28.207Z,9.80
2018-03-30T09:35:55.667Z,9.80
2018-03-30T09:38:23.182Z,6.85
2018-03-30T09:40:50.750Z,6.95
2018-03-30T09:43:19.036Z,7.43
2018-03-30T09:45:47.306Z,6.80
2018-03-30T09:48:15.569Z,7.00
2018-03-30T09:50:44.550Z,6.57
2018-03-30T09:53:12.022Z,7.07
2018-03-30T09:55:39.498Z,5.97
2018-03-30T09:58:07.732Z,6.87
2018-03-30T10:00:35.234Z,8.47
2018-03-30T10:03:04.453Z,7.77
2018-03-30T10:05:31.956Z,8.20
2018-03-30T10:07:59.417Z,6.80
2018-03-30T10:10:26.922Z,14.77
2018-03-30T10:12:54.410Z,24.90
2018-03-30T10:15:21.936Z,28.20
2018-03-30T10:17:49.396Z,9.47
2018-03-30T10:20:16.887Z,9.63
2018-03-30T10:22:44.364Z,7.40
2018-03-30T10:25:11.850Z,8.17
2018-03-30T10:27:39.365Z,8.57
2018-03-30T10:30:07.955Z,7.03
2018-03-30T10:32:35.437Z,6.47
2018-03-30T10:35:02.937Z,6.20
2018-03-30T10:37:30.458Z,8.27
2018-03-30T10:39:57.914Z,7.60
2018-03-30T10:42:26.166Z,6.97
2018-03-30T10:44:53.648Z,7.07
2018-03-30T10:47:21.901Z,8.03
2018-03-30T10:52:23.673Z,6.53
2018-03-30T10:54:51.138Z,7.33
2018-03-30T10:57:18.674Z,8.80
2018-03-30T10:59:46.890Z,11.70
2018-03-30T11:02:15.523Z,11.80
2018-03-30T11:04:43.008Z,12.40
2018-03-30T11:07:10.493Z,9.83
2018-03-30T11:09:38.730Z,7.47
2018-03-30T11:12:06.231Z,6.70
2018-03-30T11:14:33.709Z,6.20
2018-03-30T11:17:01.944Z,6.27
2018-03-30T11:19:29.459Z,16.53
2018-03-30T11:21:56.938Z,6.03
2018-03-30T11:24:24.436Z,18.07
2018-03-30T11:26:52.678Z,4.40
2018-03-30T11:29:21.331Z,3.53
2018-03-30T11:31:48.815Z,7.07
2018-03-30T11:34:16.314Z,5.43
2018-03-30T11:36:43.797Z,3.97
2018-03-30T11:39:11.302Z,4.47
2018-03-30T11:41:38.771Z,3.70
2018-03-30T11:44:06.314Z,4.30
2018-03-30T11:46:33.814Z,7.90
2018-03-30T11:49:02.435Z,4.63
2018-03-30T11:51:29.913Z,2.83
2018-03-30T11:53:57.372Z,3.37
2018-03-30T11:56:24.877Z,2.80
2018-03-30T11:58:53.097Z,2.90
2018-03-30T12:01:20.570Z,3.47
2018-03-30T12:03:48.058Z,3.50
2018-03-30T12:06:16.313Z,4.20
2018-03-30T12:08:43.790Z,3.30
2018-03-30T12:11:11.284Z,2.77
2018-03-30T12:13:38.763Z,5.50
2018-03-30T12:16:06.242Z,2.00
2018-03-30T12:18:33.715Z,2.57
2018-03-30T12:21:02.324Z,2.23
2018-03-30T12:23:30.570Z,4.57
2018-03-30T12:25:58.058Z,4.17
2018-03-30T12:28:26.320Z,2.10
2018-03-30T12:30:54.566Z,1.80
2018-03-30T12:33:22.059Z,1.77
2018-03-30T12:35:50.286Z,1.30
2018-03-30T12:38:17.809Z,1.67
2018-03-30T12:40:45.286Z,1.30
2018-03-30T12:43:12.775Z,1.30
2018-03-30T12:45:40.262Z,1.47
2018-03-30T12:48:08.502Z,1.40
2018-03-30T12:50:36.001Z,1.80
2018-03-30T12:53:04.639Z,10.47
2018-03-30T12:55:32.128Z,26.90
2018-03-30T12:58:00.386Z,1.80
2018-03-30T13:00:28.630Z,2.10
2018-03-30T13:02:56.146Z,3.77
2018-03-30T13:05:25.040Z,3.60
2018-03-30T13:07:53.250Z,2.60
2018-03-30T13:10:20.712Z,3.07
2018-03-30T13:12:48.213Z,9.43
2018-03-30T13:15:15.664Z,3.00
2018-03-30T13:17:43.181Z,2.37
2018-03-30T13:20:11.783Z,2.80
2018-03-30T13:22:39.271Z,2.10
2018-03-30T13:25:06.742Z,14.50
2018-03-30T13:27:35.374Z,18.10
2018-03-30T13:30:02.880Z,15.90
2018-03-30T13:32:30.363Z,2.10
2018-03-30T13:34:58.998Z,1.60
2018-03-30T13:37:26.473Z,3.17
2018-03-30T13:39:53.984Z,1.40
2018-03-30T13:42:21.471Z,1.00
2018-03-30T13:44:48.967Z,1.50
2018-03-30T13:47:17.216Z,1.47
2018-03-30T13:49:44.726Z,1.00
2018-03-30T13:55:07.596Z,1.10
2018-03-30T13:57:46.778Z,1.27
2018-03-30T14:00:23.068Z,1.20
2018-03-30T14:05:48.038Z,1.67
2018-03-30T14:11:15.837Z,6.70
2018-03-30T14:13:43.340Z,4.47
2018-03-30T14:16:23.336Z,12.00
2018-03-30T14:19:13.481Z,7.87
2018-03-30T14:22:02.435Z,3.53
2018-03-30T14:24:30.676Z,2.73
2018-03-30T14:27:16.626Z,1.67
2018-03-30T14:29:48.096Z,0.90
2018-03-30T14:32:34.187Z,1.67
2018-03-30T14:35:04.439Z,1.60
2018-03-30T14:37:36.450Z,1.70
2018-03-30T14:40:10.694Z,1.00
2018-03-30T14:42:40.036Z,1.40
2018-03-30T14:48:19.344Z,1.20
2018-03-30T14:50:54.729Z,1.10
2018-03-30T14:53:26.690Z,0.87
2018-03-30T14:56:07.790Z,1.17
2018-03-30T14:58:37.878Z,4.57
2018-03-30T15:04:07.707Z,2.00
2018-03-30T15:06:36.782Z,4.30
2018-03-30T15:09:10.878Z,1.47
2018-03-30T15:11:42.127Z,22.57
2018-03-30T15:14:14.014Z,56.73
2018-03-30T15:19:57.827Z,47.87
2018-03-30T15:22:27.931Z,36.63
2018-03-30T15:28:01.857Z,22.10
2018-03-30T15:30:31.943Z,3.03
2018-03-30T15:33:20.768Z,3.97
2018-03-30T15:35:50.860Z,14.03
2018-03-30T15:38:19.127Z,7.63
2018-03-30T15:40:46.608Z,12.93
2018-03-30T15:43:16.579Z,12.27
2018-03-30T15:45:49.084Z,8.07
2018-03-30T15:48:17.327Z,3.07
2018-03-30T15:50:44.810Z,10.77
2018-03-30T15:53:17.450Z,13.30
2018-03-30T15:55:46.670Z,4.93
2018-03-30T15:58:14.170Z,1.20
2018-03-30T16:00:41.666Z,7.33
2018-03-30T16:03:09.167Z,5.70
2018-03-30T16:05:36.669Z,13.37
2018-03-30T16:08:04.127Z,6.87
2018-03-30T16:10:38.119Z,7.60
2018-03-30T16:13:05.636Z,11.93
2018-03-30T16:15:33.194Z,7.20
2018-03-30T16:18:00.704Z,13.27
2018-03-30T16:20:27.698Z,7.33
2018-03-30T16:22:54.697Z,6.10
2018-03-30T16:25:21.701Z,8.97
2018-03-30T16:27:48.710Z,10.57
2018-03-30T16:30:15.701Z,5.60
2018-03-30T16:32:42.678Z,4.73
2018-03-30T16:35:09.681Z,7.03
2018-03-30T16:37:36.669Z,19.53
2018-03-30T16:40:03.676Z,3.40
2018-03-30T16:42:30.743Z,8.30
2018-03-30T16:44:58.523Z,3.40
2018-03-30T16:47:25.548Z,5.73
2018-03-30T16:49:52.546Z,9.17
2018-03-30T16:52:19.535Z,4.47
2018-03-30T16:54:46.514Z,25.40
2018-03-30T16:57:13.593Z,20.10
2018-03-30T16:59:40.575Z,10.83
2018-03-30T17:02:07.595Z,6.07
2018-03-30T17:04:34.594Z,12.17
2018-03-30T17:07:01.637Z,9.53
2018-03-30T17:09:29.388Z,4.50
2018-03-30T17:11:57.217Z,9.00
2018-03-30T17:14:24.240Z,2.80
2018-03-30T17:16:51.237Z,6.10
2018-03-30T17:19:18.246Z,8.53
2018-03-30T17:21:45.303Z,11.53
2018-03-30T17:24:12.329Z,7.00
2018-03-30T17:26:39.368Z,4.53
2018-03-30T17:29:06.398Z,3.33
2018-03-30T17:31:33.395Z,5.33
2018-03-30T17:34:00.429Z,12.27
2018-03-30T17:36:27.436Z,3.07
2018-03-30T17:38:55.217Z,3.13
2018-03-30T17:41:22.187Z,2.50
2018-03-30T17:43:49.218Z,10.40
2018-03-30T17:46:16.222Z,5.27
2018-03-30T17:48:43.243Z,5.50
2018-03-30T17:51:10.236Z,7.30
2018-03-30T17:53:38.010Z,5.63
2018-03-30T17:56:05.016Z,2.20
2018-03-30T17:58:32.045Z,15.30
2018-03-30T18:00:59.020Z,5.97
2018-03-30T18:03:26.006Z,4.20
2018-03-30T18:05:53.036Z,5.27
2018-03-30T18:08:20.783Z,3.97
2018-03-30T18:10:47.832Z,4.97
2018-03-30T18:13:15.583Z,5.13
2018-03-30T18:15:42.587Z,4.53
2018-03-30T18:18:09.596Z,9.07
2018-03-30T18:20:37.394Z,8.67
2018-03-30T18:23:04.375Z,4.87
2018-03-30T18:25:31.414Z,3.70
2018-03-30T18:27:58.385Z,5.10
2018-03-30T18:30:25.474Z,7.67
2018-03-30T18:32:52.455Z,4.20
2018-03-30T18:35:19.475Z,3.73
2018-03-30T18:37:46.499Z,4.37
2018-03-30T18:40:14.267Z,3.70
2018-03-30T18:42:42.031Z,5.50
2018-03-30T18:45:09.018Z,4.60
2018-03-30T18:47:36.037Z,3.17
2018-03-30T18:50:03.054Z,2.87
2018-03-30T18:52:30.846Z,3.57
2018-03-30T18:54:57.821Z,2.77
2018-03-30T18:57:24.844Z,3.20
2018-03-30T18:59:51.824Z,2.80
2018-03-30T19:02:18.810Z,6.20
2018-03-30T19:04:46.595Z,3.40
2018-03-30T19:07:13.612Z,3.10
2018-03-30T19:09:41.392Z,2.73
2018-03-30T19:12:09.154Z,2.60
2018-03-30T19:14:36.919Z,2.50
2018-03-30T19:17:04.693Z,2.70
2018-03-30T19:19:32.535Z,2.80
2018-03-30T19:22:00.402Z,3.53
2018-03-30T19:24:27.905Z,3.60
2018-03-30T19:26:54.952Z,3.73
2018-03-30T19:29:21.969Z,3.93
2018-03-30T19:31:49.719Z,4.47
2018-03-30T19:34:17.817Z,4.87
2018-03-30T19:36:44.803Z,5.65
2018-03-30T19:39:11.825Z,6.30
2018-03-30T19:41:38.807Z,6.65
2018-03-30T19:44:05.819Z,6.22
2018-03-30T19:46:32.814Z,7.45
2018-03-30T19:48:59.806Z,7.72
2018-03-30T19:51:26.813Z,8.75
2018-03-30T19:53:53.825Z,9.85
2018-03-30T19:56:20.830Z,11.35
2018-03-30T19:58:48.582Z,10.57
2018-03-30T20:01:16.399Z,11.65
2018-03-30T20:03:43.404Z,20.50
2018-03-30T20:06:11.189Z,12.15
2018-03-30T20:08:38.209Z,33.75
2018-03-30T20:11:06.051Z,19.67
2018-03-30T20:13:33.055Z,16.25
2018-03-30T20:16:00.069Z,12.32
2018-03-30T20:18:27.828Z,12.60
2018-03-30T20:20:54.836Z,13.02
2018-03-30T20:23:22.607Z,13.32
2018-03-30T20:25:50.418Z,17.90
2018-03-30T20:28:18.213Z,16.65
2018-03-30T20:30:45.232Z,15.88
2018-03-30T20:33:13.003Z,15.85
2018-03-30T20:35:40.789Z,15.63
2018-03-30T20:38:07.842Z,14.98
2018-03-30T20:40:34.859Z,15.13
2018-03-30T20:43:02.638Z,15.50
2018-03-30T20:45:29.651Z,15.70
2018-03-30T20:47:56.657Z,16.65
2018-03-30T20:50:23.659Z,14.75
2018-03-30T20:52:51.676Z,15.23
2018-03-30T20:55:18.694Z,13.15
2018-03-30T20:57:45.688Z,13.68
2018-03-30T21:00:12.718Z,12.85
2018-03-30T21:02:39.816Z,13.88
2018-03-30T21:05:07.587Z,12.37
2018-03-30T21:07:35.344Z,8.70
2018-03-30T21:10:03.158Z,7.80
2018-03-30T21:12:30.139Z,6.20
2018-03-30T21:14:57.186Z,6.53
2018-03-30T21:17:24.234Z,7.60
2018-03-30T21:19:51.290Z,9.07
2018-03-30T21:22:18.300Z,8.95
2018-03-30T21:24:45.326Z,9.75
2018-03-30T21:27:12.350Z,8.95
2018-03-30T21:29:40.089Z,7.47
2018-03-30T21:32:07.067Z,6.05
2018-03-30T21:34:34.045Z,6.35
2018-03-30T21:37:01.055Z,8.68
2018-03-30T21:39:28.041Z,5.60
2018-03-30T21:41:55.080Z,6.80
2018-03-30T21:44:22.082Z,8.75
2018-03-30T21:46:49.841Z,5.65
2018-03-30T21:49:16.850Z,6.18
2018-03-30T21:51:43.825Z,8.60
2018-03-30T21:54:10.821Z,8.32
2018-03-30T21:56:37.791Z,7.70
2018-03-30T21:59:04.812Z,33.97
2018-03-30T22:01:31.789Z,9.18
2018-03-30T22:03:58.786Z,10.82
2018-03-30T22:06:25.779Z,8.35
2018-03-30T22:08:52.911Z,8.32
2018-03-30T22:11:19.974Z,7.53
2018-03-30T22:13:46.969Z,7.95
2018-03-30T22:16:14.724Z,5.40
2018-03-30T22:18:42.472Z,6.70
2018-03-30T22:21:09.464Z,4.90
2018-03-30T22:23:36.442Z,16.58
2018-03-30T22:26:03.399Z,10.63
2018-03-30T22:28:30.392Z,6.00
2018-03-30T22:30:57.400Z,7.93
2018-03-30T22:33:24.389Z,3.85
2018-03-30T22:35:51.587Z,5.87
2018-03-30T22:38:18.642Z,3.30
2018-03-30T22:40:45.637Z,2.78
2018-03-30T22:43:12.615Z,2.90
2018-03-30T22:45:39.615Z,21.65
2018-03-30T22:48:07.377Z,2.83
2018-03-30T22:50:35.145Z,2.95
2018-03-30T22:53:02.906Z,3.40
2018-03-30T22:55:30.664Z,3.80
2018-03-30T22:57:58.422Z,3.70
2018-03-30T23:00:25.403Z,3.70
2018-03-30T23:02:52.400Z,4.03
2018-03-30T23:05:19.416Z,8.68
2018-03-30T23:07:46.385Z,4.37
2018-03-30T23:10:13.382Z,5.72
2018-03-30T23:12:40.349Z,4.20
2018-03-30T23:15:07.389Z,4.10
2018-03-30T23:17:34.360Z,3.75
2018-03-30T23:20:01.318Z,3.97
2018-03-30T23:22:28.312Z,3.58
2018-03-30T23:24:55.282Z,4.60
2018-03-30T23:27:22.287Z,3.55
2018-03-30T23:29:50.022Z,3.55
2018-03-30T23:32:17.008Z,3.80
2018-03-30T23:34:44.733Z,3.47
2018-03-30T23:37:11.749Z,3.42
2018-03-30T23:39:38.717Z,4.20
2018-03-30T23:42:05.705Z,4.28
2018-03-30T23:44:33.432Z,5.00
2018-03-30T23:47:00.476Z,4.60
2018-03-30T23:49:27.445Z,5.22
2018-03-30T23:51:55.185Z,5.43
2018-03-30T23:54:22.199Z,5.80
2018-03-30T23:56:49.206Z,6.37
2018-03-30T23:59:16.204Z,5.07
